CheckWX is a tool to help pilots better visualize weather data.  It is not intended as a substitute for an official pre-flight weather briefing.

06:45:08 UTC

KPMD METAR
Palmdale Usaf Plant 42 Airport
Palmdale, California, USA
Current

52 mins ago

KPMD 210553Z AUTO VRB05G24KT 10SM CLR 13/02 A2995 RMK AO2 SLP131 T01330017 10172 20122 50010
Observed
May-21 @ 05:53 UTC
Wind
  • Variable at 5 KTS
  • Gusting to 24 KTS
Visibility
10 SM
Flight Rules
VFR
Cloud Levels
  • Clear skies
Temperature
13°C / 55°F
Dewpoint
C / 36°F
Humidity
47%
Altimeter
29.95" Hg
Pressure
1014.22 hPa
Previous

2 hours ago

KPMD 210453Z 21007KT 10SM CLR 13/02 A2996 RMK AO2 SLP136 T01280017
Observed
May-21 @ 04:53 UTC
Wind
  • 210° at 7 KTS
Visibility
10 SM
Flight Rules
VFR
Cloud Levels
  • Clear skies
Temperature
13°C / 55°F
Dewpoint
C / 36°F
Humidity
47%
Altimeter
29.96" Hg
Pressure
1014.52 hPa
Previous

3 hours ago

KPMD 210353Z 28014G18KT 10SM CLR 13/M01 A2994 RMK AO2 PK WND 29029/0303 SLP129 T01331006
Observed
May-21 @ 03:53 UTC
Wind
  • 280° at 14 KTS
  • Gusting to 18 KTS
Visibility
10 SM
Flight Rules
VFR
Cloud Levels
  • Clear skies
Temperature
13°C / 55°F
Dewpoint
-1°C / 30°F
Humidity
38%
Altimeter
29.94" Hg
Pressure
1013.92 hPa